Trimble, Tennessee
Current Conditions -  °F | °C
As of 4:35 AM on Monday 22 Dec 2014 (Local Time) from KUCY Reporting Station
Overcast Overcast  
Wind Chill: 38°   Ceiling: 1300
Heat Index: 43°   Visibility: 10mi
Dew Point: 41°   Wind: 8mph
Humidity: 93%   Direction: 140°SE
Pressure: 29.86"   Gusts: NA
Location:  36.2°N, 89.19°W
Report Text: KUCY 221035Z AUTO 14007KT 10SM BKN013 OVC090 06/05 A2986 RMK
Loading
Personal Weather Stations






























Interactive Weather Map New forecast layout! Learn more

10-Day Weather Forecast

Advertisements
Track Severe Weather on mobile